sensor_id;sensor_type;location;lat;lon;timestamp;P1;durP1;ratioP1;P2;durP2;ratioP2
41426;SDS011;27171;51.812;19.514;2022-12-07T00:02:43;20.17;;;14.35;;
41426;SDS011;27171;51.812;19.514;2022-12-07T00:08:45;21.77;;;15.20;;
41426;SDS011;27171;51.812;19.514;2022-12-07T00:11:48;19.52;;;13.95;;
41426;SDS011;27171;51.812;19.514;2022-12-07T00:14:50;22.58;;;14.82;;
41426;SDS011;27171;51.812;19.514;2022-12-07T00:20:52;19.52;;;13.38;;
41426;SDS011;27171;51.812;19.514;2022-12-07T00:23:59;19.02;;;12.98;;
41426;SDS011;27171;51.812;19.514;2022-12-07T00:27:00;22.65;;;15.50;;
41426;SDS011;27171;51.812;19.514;2022-12-07T00:30:02;23.20;;;15.73;;
41426;SDS011;27171;51.812;19.514;2022-12-07T00:33:03;21.95;;;14.95;;
41426;SDS011;27171;51.812;19.514;2022-12-07T00:36:06;22.70;;;15.27;;
41426;SDS011;27171;51.812;19.514;2022-12-07T00:39:09;24.65;;;17.90;;
41426;SDS011;27171;51.812;19.514;2022-12-07T00:42:11;23.48;;;16.08;;
41426;SDS011;27171;51.812;19.514;2022-12-07T00:45:12;21.20;;;15.45;;
41426;SDS011;27171;51.812;19.514;2022-12-07T00:48:13;22.27;;;15.32;;
41426;SDS011;27171;51.812;19.514;2022-12-07T00:54:16;20.25;;;13.15;;
41426;SDS011;27171;51.812;19.514;2022-12-07T00:57:17;20.38;;;13.80;;
41426;SDS011;27171;51.812;19.514;2022-12-07T01:03:19;20.00;;;12.48;;
41426;SDS011;27171;51.812;19.514;2022-12-07T01:06:21;21.15;;;13.52;;
41426;SDS011;27171;51.812;19.514;2022-12-07T01:09:23;19.98;;;13.93;;
41426;SDS011;27171;51.812;19.514;2022-12-07T01:12:25;22.13;;;15.15;;
41426;SDS011;27171;51.812;19.514;2022-12-07T01:18:27;16.75;;;12.07;;
41426;SDS011;27171;51.812;19.514;2022-12-07T01:21:30;20.45;;;13.63;;
41426;SDS011;27171;51.812;19.514;2022-12-07T01:24:32;21.98;;;13.90;;
41426;SDS011;27171;51.812;19.514;2022-12-07T01:27:34;17.52;;;12.68;;
41426;SDS011;27171;51.812;19.514;2022-12-07T01:30:35;20.40;;;12.93;;
41426;SDS011;27171;51.812;19.514;2022-12-07T01:36:38;17.23;;;12.10;;
41426;SDS011;27171;51.812;19.514;2022-12-07T01:39:39;17.58;;;12.48;;
41426;SDS011;27171;51.812;19.514;2022-12-07T01:42:40;20.58;;;13.73;;
41426;SDS011;27171;51.812;19.514;2022-12-07T01:51:44;20.50;;;13.20;;
41426;SDS011;27171;51.812;19.514;2022-12-07T01:54:47;23.58;;;15.57;;
41426;SDS011;27171;51.812;19.514;2022-12-07T01:57:51;21.55;;;14.05;;
41426;SDS011;27171;51.812;19.514;2022-12-07T02:00:53;18.23;;;13.38;;
41426;SDS011;27171;51.812;19.514;2022-12-07T02:03:54;18.92;;;12.85;;
41426;SDS011;27171;51.812;19.514;2022-12-07T02:06:56;21.50;;;14.25;;
41426;SDS011;27171;51.812;19.514;2022-12-07T02:10:11;21.90;;;14.27;;
41426;SDS011;27171;51.812;19.514;2022-12-07T02:13:21;23.48;;;16.02;;
41426;SDS011;27171;51.812;19.514;2022-12-07T02:29:18;20.65;;;14.43;;
41426;SDS011;27171;51.812;19.514;2022-12-07T02:32:24;19.60;;;14.52;;
41426;SDS011;27171;51.812;19.514;2022-12-07T02:38:40;16.35;;;11.88;;
41426;SDS011;27171;51.812;19.514;2022-12-07T02:42:02;13.98;;;11.10;;
41426;SDS011;27171;51.812;19.514;2022-12-07T02:45:32;12.80;;;10.23;;
41426;SDS011;27171;51.812;19.514;2022-12-07T02:48:38;11.02;;;8.65;;
41426;SDS011;27171;51.812;19.514;2022-12-07T02:51:42;12.55;;;8.80;;
41426;SDS011;27171;51.812;19.514;2022-12-07T02:54:46;11.40;;;9.23;;
41426;SDS011;27171;51.812;19.514;2022-12-07T03:08:14;10.90;;;9.20;;
41426;SDS011;27171;51.812;19.514;2022-12-07T03:11:29;11.55;;;9.93;;
41426;SDS011;27171;51.812;19.514;2022-12-07T03:14:52;11.60;;;9.27;;
41426;SDS011;27171;51.812;19.514;2022-12-07T03:17:59;12.82;;;10.40;;
41426;SDS011;27171;51.812;19.514;2022-12-07T03:21:06;12.85;;;10.38;;
41426;SDS011;27171;51.812;19.514;2022-12-07T03:24:14;13.35;;;10.93;;
41426;SDS011;27171;51.812;19.514;2022-12-07T03:27:20;15.43;;;11.77;;
41426;SDS011;27171;51.812;19.514;2022-12-07T03:30:37;14.02;;;10.70;;
41426;SDS011;27171;51.812;19.514;2022-12-07T03:40:31;10.07;;;8.60;;
41426;SDS011;27171;51.812;19.514;2022-12-07T03:43:48;11.43;;;8.82;;
41426;SDS011;27171;51.812;19.514;2022-12-07T03:50:28;11.13;;;8.95;;
41426;SDS011;27171;51.812;19.514;2022-12-07T03:53:39;10.35;;;8.68;;
41426;SDS011;27171;51.812;19.514;2022-12-07T03:56:46;11.27;;;9.30;;
41426;SDS011;27171;51.812;19.514;2022-12-07T03:59:49;9.63;;;8.18;;
41426;SDS011;27171;51.812;19.514;2022-12-07T04:02:52;11.05;;;9.15;;
41426;SDS011;27171;51.812;19.514;2022-12-07T04:05:53;9.80;;;8.35;;
41426;SDS011;27171;51.812;19.514;2022-12-07T04:08:55;9.30;;;7.00;;
41426;SDS011;27171;51.812;19.514;2022-12-07T04:11:56;8.48;;;7.45;;
41426;SDS011;27171;51.812;19.514;2022-12-07T04:14:57;8.55;;;7.47;;
41426;SDS011;27171;51.812;19.514;2022-12-07T04:20:59;7.15;;;5.72;;
41426;SDS011;27171;51.812;19.514;2022-12-07T04:24:00;8.05;;;5.55;;
41426;SDS011;27171;51.812;19.514;2022-12-07T04:27:01;7.95;;;6.50;;
41426;SDS011;27171;51.812;19.514;2022-12-07T04:30:02;6.78;;;5.82;;
41426;SDS011;27171;51.812;19.514;2022-12-07T04:33:04;8.88;;;5.90;;
41426;SDS011;27171;51.812;19.514;2022-12-07T04:39:07;6.13;;;4.65;;
41426;SDS011;27171;51.812;19.514;2022-12-07T04:42:13;7.88;;;6.25;;
41426;SDS011;27171;51.812;19.514;2022-12-07T04:45:15;7.35;;;4.80;;
41426;SDS011;27171;51.812;19.514;2022-12-07T04:48:16;9.23;;;5.70;;
41426;SDS011;27171;51.812;19.514;2022-12-07T04:51:27;5.88;;;5.28;;
41426;SDS011;27171;51.812;19.514;2022-12-07T04:54:29;7.85;;;5.35;;
41426;SDS011;27171;51.812;19.514;2022-12-07T04:57:30;7.57;;;6.18;;
41426;SDS011;27171;51.812;19.514;2022-12-07T05:03:32;6.45;;;5.07;;
41426;SDS011;27171;51.812;19.514;2022-12-07T05:06:33;11.00;;;6.88;;
41426;SDS011;27171;51.812;19.514;2022-12-07T05:09:34;7.15;;;5.35;;
41426;SDS011;27171;51.812;19.514;2022-12-07T05:12:36;7.15;;;5.03;;
41426;SDS011;27171;51.812;19.514;2022-12-07T05:18:38;6.85;;;4.93;;
41426;SDS011;27171;51.812;19.514;2022-12-07T05:24:40;8.02;;;5.20;;
41426;SDS011;27171;51.812;19.514;2022-12-07T05:27:41;8.30;;;5.95;;
41426;SDS011;27171;51.812;19.514;2022-12-07T05:30:42;8.27;;;6.03;;
41426;SDS011;27171;51.812;19.514;2022-12-07T05:36:44;7.32;;;5.47;;
41426;SDS011;27171;51.812;19.514;2022-12-07T05:39:45;8.85;;;5.50;;
41426;SDS011;27171;51.812;19.514;2022-12-07T05:45:47;7.70;;;5.60;;
41426;SDS011;27171;51.812;19.514;2022-12-07T05:48:48;9.35;;;6.68;;
41426;SDS011;27171;51.812;19.514;2022-12-07T05:51:49;11.40;;;7.20;;
41426;SDS011;27171;51.812;19.514;2022-12-07T05:57:52;13.75;;;7.93;;
41426;SDS011;27171;51.812;19.514;2022-12-07T06:03:56;11.98;;;7.57;;
41426;SDS011;27171;51.812;19.514;2022-12-07T06:06:58;17.73;;;8.68;;
41426;SDS011;27171;51.812;19.514;2022-12-07T06:09:59;29.98;;;10.75;;
41426;SDS011;27171;51.812;19.514;2022-12-07T06:16:01;20.02;;;10.38;;
41426;SDS011;27171;51.812;19.514;2022-12-07T06:19:02;23.77;;;11.32;;
41426;SDS011;27171;51.812;19.514;2022-12-07T06:22:04;39.42;;;14.43;;
41426;SDS011;27171;51.812;19.514;2022-12-07T06:25:05;103.95;;;19.77;;
41426;SDS011;27171;51.812;19.514;2022-12-07T06:28:07;63.92;;;20.52;;
41426;SDS011;27171;51.812;19.514;2022-12-07T06:31:08;35.42;;;18.45;;
41426;SDS011;27171;51.812;19.514;2022-12-07T06:34:10;23.80;;;14.98;;
41426;SDS011;27171;51.812;19.514;2022-12-07T06:37:13;26.15;;;17.33;;
41426;SDS011;27171;51.812;19.514;2022-12-07T06:40:15;28.73;;;18.08;;
41426;SDS011;27171;51.812;19.514;2022-12-07T06:43:16;23.20;;;16.55;;
41426;SDS011;27171;51.812;19.514;2022-12-07T06:46:17;20.98;;;15.18;;
41426;SDS011;27171;51.812;19.514;2022-12-07T06:49:18;22.42;;;16.00;;
41426;SDS011;27171;51.812;19.514;2022-12-07T06:55:20;18.40;;;12.00;;
41426;SDS011;27171;51.812;19.514;2022-12-07T06:58:21;21.23;;;14.70;;
41426;SDS011;27171;51.812;19.514;2022-12-07T07:04:23;17.80;;;11.00;;
41426;SDS011;27171;51.812;19.514;2022-12-07T07:07:25;18.33;;;12.77;;
41426;SDS011;27171;51.812;19.514;2022-12-07T07:10:26;24.70;;;15.80;;
41426;SDS011;27171;51.812;19.514;2022-12-07T07:13:27;23.92;;;14.52;;
41426;SDS011;27171;51.812;19.514;2022-12-07T07:16:29;19.92;;;14.23;;
41426;SDS011;27171;51.812;19.514;2022-12-07T07:19:30;16.83;;;11.88;;
41426;SDS011;27171;51.812;19.514;2022-12-07T07:25:32;17.50;;;10.13;;
41426;SDS011;27171;51.812;19.514;2022-12-07T07:28:34;16.27;;;10.95;;
41426;SDS011;27171;51.812;19.514;2022-12-07T07:31:35;17.00;;;11.18;;
41426;SDS011;27171;51.812;19.514;2022-12-07T07:37:37;21.40;;;14.38;;
41426;SDS011;27171;51.812;19.514;2022-12-07T07:43:39;23.98;;;15.38;;
41426;SDS011;27171;51.812;19.514;2022-12-07T07:46:40;17.27;;;12.35;;
41426;SDS011;27171;51.812;19.514;2022-12-07T07:49:41;21.20;;;14.70;;
41426;SDS011;27171;51.812;19.514;2022-12-07T07:52:43;19.00;;;12.88;;
41426;SDS011;27171;51.812;19.514;2022-12-07T07:55:51;17.30;;;12.23;;
41426;SDS011;27171;51.812;19.514;2022-12-07T07:58:53;17.80;;;12.05;;
41426;SDS011;27171;51.812;19.514;2022-12-07T08:01:55;16.00;;;11.23;;
41426;SDS011;27171;51.812;19.514;2022-12-07T08:04:56;14.63;;;10.25;;
41426;SDS011;27171;51.812;19.514;2022-12-07T08:10:58;11.77;;;8.77;;
41426;SDS011;27171;51.812;19.514;2022-12-07T08:20:01;11.60;;;7.30;;
41426;SDS011;27171;51.812;19.514;2022-12-07T08:23:03;12.55;;;8.82;;
41426;SDS011;27171;51.812;19.514;2022-12-07T08:26:07;10.65;;;8.23;;
41426;SDS011;27171;51.812;19.514;2022-12-07T08:29:10;13.65;;;8.70;;
41426;SDS011;27171;51.812;19.514;2022-12-07T08:32:11;12.55;;;9.00;;
41426;SDS011;27171;51.812;19.514;2022-12-07T08:38:14;12.63;;;8.85;;
41426;SDS011;27171;51.812;19.514;2022-12-07T08:47:17;12.63;;;8.85;;
41426;SDS011;27171;51.812;19.514;2022-12-07T08:50:19;12.52;;;9.13;;
41426;SDS011;27171;51.812;19.514;2022-12-07T08:53:20;13.90;;;10.43;;
41426;SDS011;27171;51.812;19.514;2022-12-07T08:56:22;13.60;;;11.10;;
41426;SDS011;27171;51.812;19.514;2022-12-07T08:59:24;15.57;;;11.93;;
41426;SDS011;27171;51.812;19.514;2022-12-07T09:02:25;15.77;;;12.32;;
41426;SDS011;27171;51.812;19.514;2022-12-07T09:05:27;13.90;;;11.52;;
41426;SDS011;27171;51.812;19.514;2022-12-07T09:08:30;15.43;;;11.82;;
41426;SDS011;27171;51.812;19.514;2022-12-07T09:11:35;16.42;;;11.38;;
41426;SDS011;27171;51.812;19.514;2022-12-07T09:14:36;13.43;;;11.27;;
41426;SDS011;27171;51.812;19.514;2022-12-07T09:20:38;12.38;;;9.43;;
41426;SDS011;27171;51.812;19.514;2022-12-07T09:23:40;11.45;;;8.98;;
41426;SDS011;27171;51.812;19.514;2022-12-07T09:26:42;12.10;;;9.30;;
41426;SDS011;27171;51.812;19.514;2022-12-07T09:32:44;10.23;;;8.15;;
41426;SDS011;27171;51.812;19.514;2022-12-07T09:35:49;12.43;;;8.98;;
41426;SDS011;27171;51.812;19.514;2022-12-07T09:38:51;11.93;;;9.68;;
41426;SDS011;27171;51.812;19.514;2022-12-07T09:41:52;11.65;;;9.23;;
41426;SDS011;27171;51.812;19.514;2022-12-07T09:44:54;13.63;;;9.70;;
41426;SDS011;27171;51.812;19.514;2022-12-07T09:47:56;11.70;;;9.38;;
41426;SDS011;27171;51.812;19.514;2022-12-07T09:51:00;11.40;;;9.23;;
41426;SDS011;27171;51.812;19.514;2022-12-07T09:54:01;10.15;;;8.52;;
41426;SDS011;27171;51.812;19.514;2022-12-07T09:57:03;9.65;;;7.88;;
41426;SDS011;27171;51.812;19.514;2022-12-07T10:00:06;8.95;;;7.38;;
41426;SDS011;27171;51.812;19.514;2022-12-07T10:03:14;9.82;;;7.32;;
41426;SDS011;27171;51.812;19.514;2022-12-07T10:06:15;10.75;;;7.13;;
41426;SDS011;27171;51.812;19.514;2022-12-07T10:09:17;9.25;;;6.78;;
41426;SDS011;27171;51.812;19.514;2022-12-07T10:12:20;9.60;;;6.95;;
41426;SDS011;27171;51.812;19.514;2022-12-07T10:15:22;9.95;;;7.47;;
41426;SDS011;27171;51.812;19.514;2022-12-07T10:21:40;8.70;;;6.30;;
41426;SDS011;27171;51.812;19.514;2022-12-07T10:25:07;9.80;;;7.50;;
41426;SDS011;27171;51.812;19.514;2022-12-07T10:28:14;8.23;;;6.60;;
41426;SDS011;27171;51.812;19.514;2022-12-07T10:31:18;9.95;;;8.23;;
41426;SDS011;27171;51.812;19.514;2022-12-07T10:34:29;11.02;;;8.15;;
41426;SDS011;27171;51.812;19.514;2022-12-07T10:37:40;9.80;;;7.55;;
41426;SDS011;27171;51.812;19.514;2022-12-07T10:40:41;9.77;;;7.25;;
41426;SDS011;27171;51.812;19.514;2022-12-07T10:43:50;10.15;;;7.82;;
41426;SDS011;27171;51.812;19.514;2022-12-07T11:04:15;11.57;;;9.55;;
41426;SDS011;27171;51.812;19.514;2022-12-07T11:10:41;11.65;;;9.20;;
41426;SDS011;27171;51.812;19.514;2022-12-07T11:17:18;9.25;;;7.55;;
41426;SDS011;27171;51.812;19.514;2022-12-07T11:27:05;9.82;;;7.72;;
41426;SDS011;27171;51.812;19.514;2022-12-07T11:37:41;11.67;;;8.73;;
41426;SDS011;27171;51.812;19.514;2022-12-07T11:40:43;10.55;;;8.70;;
41426;SDS011;27171;51.812;19.514;2022-12-07T11:43:56;11.07;;;8.48;;
41426;SDS011;27171;51.812;19.514;2022-12-07T11:53:39;11.02;;;9.50;;
41426;SDS011;27171;51.812;19.514;2022-12-07T11:56:42;10.60;;;9.35;;
41426;SDS011;27171;51.812;19.514;2022-12-07T11:59:47;12.30;;;9.15;;
41426;SDS011;27171;51.812;19.514;2022-12-07T12:03:04;12.68;;;10.57;;
41426;SDS011;27171;51.812;19.514;2022-12-07T12:12:40;12.45;;;9.77;;
41426;SDS011;27171;51.812;19.514;2022-12-07T12:19:13;10.02;;;8.50;;
41426;SDS011;27171;51.812;19.514;2022-12-07T12:22:39;10.95;;;8.35;;
41426;SDS011;27171;51.812;19.514;2022-12-07T12:25:52;10.23;;;7.95;;
41426;SDS011;27171;51.812;19.514;2022-12-07T12:28:58;11.57;;;9.10;;
41426;SDS011;27171;51.812;19.514;2022-12-07T12:32:05;11.57;;;9.50;;
41426;SDS011;27171;51.812;19.514;2022-12-07T12:38:32;11.85;;;8.95;;
41426;SDS011;27171;51.812;19.514;2022-12-07T12:48:04;10.95;;;8.35;;
41426;SDS011;27171;51.812;19.514;2022-12-07T12:54:39;13.02;;;9.77;;
41426;SDS011;27171;51.812;19.514;2022-12-07T13:07:57;13.85;;;11.25;;
41426;SDS011;27171;51.812;19.514;2022-12-07T13:29:46;13.88;;;10.30;;
41426;SDS011;27171;51.812;19.514;2022-12-07T13:32:54;15.57;;;10.88;;
41426;SDS011;27171;51.812;19.514;2022-12-07T13:35:57;13.80;;;10.93;;
41426;SDS011;27171;51.812;19.514;2022-12-07T13:38:59;14.85;;;10.98;;
41426;SDS011;27171;51.812;19.514;2022-12-07T13:42:15;17.30;;;11.98;;
41426;SDS011;27171;51.812;19.514;2022-12-07T13:45:31;15.23;;;11.32;;
41426;SDS011;27171;51.812;19.514;2022-12-07T13:48:35;20.23;;;13.07;;
41426;SDS011;27171;51.812;19.514;2022-12-07T13:51:43;17.92;;;13.77;;
41426;SDS011;27171;51.812;19.514;2022-12-07T13:57:51;17.35;;;11.88;;
41426;SDS011;27171;51.812;19.514;2022-12-07T14:00:54;16.98;;;13.52;;
41426;SDS011;27171;51.812;19.514;2022-12-07T14:03:55;19.25;;;14.10;;
41426;SDS011;27171;51.812;19.514;2022-12-07T14:06:56;21.63;;;14.73;;
41426;SDS011;27171;51.812;19.514;2022-12-07T14:09:59;20.48;;;15.57;;
41426;SDS011;27171;51.812;19.514;2022-12-07T14:13:02;23.33;;;15.52;;
41426;SDS011;27171;51.812;19.514;2022-12-07T14:16:28;19.92;;;14.77;;
41426;SDS011;27171;51.812;19.514;2022-12-07T14:19:44;19.50;;;14.52;;
41426;SDS011;27171;51.812;19.514;2022-12-07T14:22:55;18.67;;;14.25;;
41426;SDS011;27171;51.812;19.514;2022-12-07T14:26:15;22.23;;;15.15;;
41426;SDS011;27171;51.812;19.514;2022-12-07T14:32:24;18.23;;;13.65;;
41426;SDS011;27171;51.812;19.514;2022-12-07T14:35:27;19.70;;;13.73;;
41426;SDS011;27171;51.812;19.514;2022-12-07T14:38:29;16.48;;;12.38;;
41426;SDS011;27171;51.812;19.514;2022-12-07T14:41:30;16.35;;;11.50;;
41426;SDS011;27171;51.812;19.514;2022-12-07T14:44:31;14.65;;;11.30;;
41426;SDS011;27171;51.812;19.514;2022-12-07T14:47:32;16.25;;;11.90;;
41426;SDS011;27171;51.812;19.514;2022-12-07T14:53:37;15.88;;;10.63;;
41426;SDS011;27171;51.812;19.514;2022-12-07T14:56:46;16.85;;;11.98;;
41426;SDS011;27171;51.812;19.514;2022-12-07T14:59:47;15.40;;;12.98;;
41426;SDS011;27171;51.812;19.514;2022-12-07T15:02:48;16.48;;;12.05;;
41426;SDS011;27171;51.812;19.514;2022-12-07T15:05:49;17.10;;;12.95;;
41426;SDS011;27171;51.812;19.514;2022-12-07T15:11:51;13.57;;;10.52;;
41426;SDS011;27171;51.812;19.514;2022-12-07T15:17:53;18.45;;;11.05;;
41426;SDS011;27171;51.812;19.514;2022-12-07T15:23:55;13.80;;;10.73;;
41426;SDS011;27171;51.812;19.514;2022-12-07T15:29:57;14.57;;;10.88;;
41426;SDS011;27171;51.812;19.514;2022-12-07T15:32:59;17.23;;;12.60;;
41426;SDS011;27171;51.812;19.514;2022-12-07T15:36:00;15.10;;;11.23;;
41426;SDS011;27171;51.812;19.514;2022-12-07T15:42:02;15.63;;;11.18;;
41426;SDS011;27171;51.812;19.514;2022-12-07T15:45:05;16.45;;;12.23;;
41426;SDS011;27171;51.812;19.514;2022-12-07T15:48:08;14.73;;;11.63;;
41426;SDS011;27171;51.812;19.514;2022-12-07T15:54:13;14.95;;;11.10;;
41426;SDS011;27171;51.812;19.514;2022-12-07T15:57:18;16.50;;;11.93;;
41426;SDS011;27171;51.812;19.514;2022-12-07T16:06:22;13.13;;;9.77;;
41426;SDS011;27171;51.812;19.514;2022-12-07T16:09:23;16.15;;;12.25;;
41426;SDS011;27171;51.812;19.514;2022-12-07T16:15:25;14.75;;;10.65;;
41426;SDS011;27171;51.812;19.514;2022-12-07T16:18:26;16.13;;;11.57;;
41426;SDS011;27171;51.812;19.514;2022-12-07T16:24:30;14.82;;;11.48;;
41426;SDS011;27171;51.812;19.514;2022-12-07T16:27:34;16.52;;;11.10;;
41426;SDS011;27171;51.812;19.514;2022-12-07T16:30:38;17.83;;;11.80;;
41426;SDS011;27171;51.812;19.514;2022-12-07T16:33:40;16.83;;;11.63;;
41426;SDS011;27171;51.812;19.514;2022-12-07T16:36:43;14.60;;;10.85;;
41426;SDS011;27171;51.812;19.514;2022-12-07T16:39:45;14.15;;;10.77;;
41426;SDS011;27171;51.812;19.514;2022-12-07T16:42:46;13.35;;;9.98;;
41426;SDS011;27171;51.812;19.514;2022-12-07T16:45:47;12.50;;;10.10;;
41426;SDS011;27171;51.812;19.514;2022-12-07T16:48:49;15.23;;;11.43;;
41426;SDS011;27171;51.812;19.514;2022-12-07T16:51:50;13.63;;;9.80;;
41426;SDS011;27171;51.812;19.514;2022-12-07T16:54:52;15.82;;;10.30;;
41426;SDS011;27171;51.812;19.514;2022-12-07T17:00:54;12.73;;;9.48;;
41426;SDS011;27171;51.812;19.514;2022-12-07T17:03:56;13.25;;;10.32;;
41426;SDS011;27171;51.812;19.514;2022-12-07T17:07:00;12.45;;;10.40;;
41426;SDS011;27171;51.812;19.514;2022-12-07T17:13:02;10.90;;;8.40;;
41426;SDS011;27171;51.812;19.514;2022-12-07T17:16:05;14.43;;;11.00;;
41426;SDS011;27171;51.812;19.514;2022-12-07T17:19:07;15.80;;;10.10;;
41426;SDS011;27171;51.812;19.514;2022-12-07T17:22:09;15.02;;;10.38;;
41426;SDS011;27171;51.812;19.514;2022-12-07T17:25:11;12.48;;;8.90;;
41426;SDS011;27171;51.812;19.514;2022-12-07T17:28:12;12.68;;;8.88;;
41426;SDS011;27171;51.812;19.514;2022-12-07T17:31:13;12.48;;;9.32;;
41426;SDS011;27171;51.812;19.514;2022-12-07T17:34:16;10.70;;;8.32;;
41426;SDS011;27171;51.812;19.514;2022-12-07T17:40:18;10.98;;;7.88;;
41426;SDS011;27171;51.812;19.514;2022-12-07T17:43:19;9.75;;;6.85;;
41426;SDS011;27171;51.812;19.514;2022-12-07T17:49:21;11.90;;;7.38;;
41426;SDS011;27171;51.812;19.514;2022-12-07T17:52:22;9.98;;;7.35;;
41426;SDS011;27171;51.812;19.514;2022-12-07T17:55:24;12.00;;;8.48;;
41426;SDS011;27171;51.812;19.514;2022-12-07T17:58:25;10.77;;;9.10;;
41426;SDS011;27171;51.812;19.514;2022-12-07T18:01:26;15.27;;;12.32;;
41426;SDS011;27171;51.812;19.514;2022-12-07T18:04:27;16.20;;;11.40;;
41426;SDS011;27171;51.812;19.514;2022-12-07T18:10:29;12.23;;;9.32;;
41426;SDS011;27171;51.812;19.514;2022-12-07T18:13:32;14.02;;;11.57;;
41426;SDS011;27171;51.812;19.514;2022-12-07T18:16:34;12.80;;;10.18;;
41426;SDS011;27171;51.812;19.514;2022-12-07T18:19:35;11.90;;;9.45;;
41426;SDS011;27171;51.812;19.514;2022-12-07T18:22:36;10.65;;;8.85;;
41426;SDS011;27171;51.812;19.514;2022-12-07T18:25:37;10.70;;;9.07;;
41426;SDS011;27171;51.812;19.514;2022-12-07T18:31:39;8.75;;;6.65;;
41426;SDS011;27171;51.812;19.514;2022-12-07T18:34:41;9.77;;;7.15;;
41426;SDS011;27171;51.812;19.514;2022-12-07T18:37:42;9.50;;;6.10;;
41426;SDS011;27171;51.812;19.514;2022-12-07T18:46:45;8.73;;;5.63;;
41426;SDS011;27171;51.812;19.514;2022-12-07T18:49:46;8.70;;;6.30;;
41426;SDS011;27171;51.812;19.514;2022-12-07T18:55:48;7.70;;;5.15;;
41426;SDS011;27171;51.812;19.514;2022-12-07T18:58:50;7.20;;;5.35;;
41426;SDS011;27171;51.812;19.514;2022-12-07T19:01:56;10.00;;;6.38;;
41426;SDS011;27171;51.812;19.514;2022-12-07T19:04:57;8.63;;;5.97;;
41426;SDS011;27171;51.812;19.514;2022-12-07T19:08:00;8.35;;;6.10;;
41426;SDS011;27171;51.812;19.514;2022-12-07T19:11:01;9.88;;;6.43;;
41426;SDS011;27171;51.812;19.514;2022-12-07T19:17:04;7.45;;;5.85;;
41426;SDS011;27171;51.812;19.514;2022-12-07T19:20:11;9.15;;;6.18;;
41426;SDS011;27171;51.812;19.514;2022-12-07T19:23:13;9.93;;;6.00;;
41426;SDS011;27171;51.812;19.514;2022-12-07T19:26:14;9.23;;;6.68;;
41426;SDS011;27171;51.812;19.514;2022-12-07T19:32:16;8.50;;;5.10;;
41426;SDS011;27171;51.812;19.514;2022-12-07T19:35:18;8.70;;;5.68;;
41426;SDS011;27171;51.812;19.514;2022-12-07T19:38:19;10.85;;;6.20;;
41426;SDS011;27171;51.812;19.514;2022-12-07T19:41:20;9.23;;;5.30;;
41426;SDS011;27171;51.812;19.514;2022-12-07T19:47:23;8.43;;;4.95;;
41426;SDS011;27171;51.812;19.514;2022-12-07T19:50:24;7.40;;;5.65;;
41426;SDS011;27171;51.812;19.514;2022-12-07T19:53:25;10.55;;;6.00;;
41426;SDS011;27171;51.812;19.514;2022-12-07T19:59:28;9.18;;;4.97;;
41426;SDS011;27171;51.812;19.514;2022-12-07T20:02:29;8.60;;;5.32;;
41426;SDS011;27171;51.812;19.514;2022-12-07T20:05:32;8.57;;;5.45;;
41426;SDS011;27171;51.812;19.514;2022-12-07T20:08:34;9.88;;;6.22;;
41426;SDS011;27171;51.812;19.514;2022-12-07T20:17:37;7.50;;;5.05;;
41426;SDS011;27171;51.812;19.514;2022-12-07T20:20:39;7.95;;;5.60;;
41426;SDS011;27171;51.812;19.514;2022-12-07T20:23:40;9.75;;;6.30;;
41426;SDS011;27171;51.812;19.514;2022-12-07T20:26:42;9.93;;;6.40;;
41426;SDS011;27171;51.812;19.514;2022-12-07T20:29:43;12.20;;;7.30;;
41426;SDS011;27171;51.812;19.514;2022-12-07T20:35:46;9.02;;;6.32;;
41426;SDS011;27171;51.812;19.514;2022-12-07T20:38:47;11.90;;;8.27;;
41426;SDS011;27171;51.812;19.514;2022-12-07T20:41:48;14.60;;;8.85;;
41426;SDS011;27171;51.812;19.514;2022-12-07T20:44:49;12.10;;;8.50;;
41426;SDS011;27171;51.812;19.514;2022-12-07T20:47:51;16.77;;;10.40;;
41426;SDS011;27171;51.812;19.514;2022-12-07T20:50:53;13.43;;;8.63;;
41426;SDS011;27171;51.812;19.514;2022-12-07T20:54:04;10.50;;;8.10;;
41426;SDS011;27171;51.812;19.514;2022-12-07T20:57:05;11.82;;;7.53;;
41426;SDS011;27171;51.812;19.514;2022-12-07T21:00:07;11.13;;;7.45;;
41426;SDS011;27171;51.812;19.514;2022-12-07T21:03:09;8.50;;;6.32;;
41426;SDS011;27171;51.812;19.514;2022-12-07T21:06:17;11.57;;;7.28;;
41426;SDS011;27171;51.812;19.514;2022-12-07T21:09:18;13.88;;;8.45;;
41426;SDS011;27171;51.812;19.514;2022-12-07T21:15:20;10.52;;;6.35;;
41426;SDS011;27171;51.812;19.514;2022-12-07T21:18:21;14.82;;;7.75;;
41426;SDS011;27171;51.812;19.514;2022-12-07T21:21:22;12.95;;;8.43;;
41426;SDS011;27171;51.812;19.514;2022-12-07T21:24:23;16.40;;;9.50;;
41426;SDS011;27171;51.812;19.514;2022-12-07T21:27:25;12.25;;;8.55;;
41426;SDS011;27171;51.812;19.514;2022-12-07T21:33:27;14.73;;;9.32;;
41426;SDS011;27171;51.812;19.514;2022-12-07T21:36:28;21.55;;;12.50;;
41426;SDS011;27171;51.812;19.514;2022-12-07T21:39:29;13.02;;;8.77;;
41426;SDS011;27171;51.812;19.514;2022-12-07T21:42:30;13.40;;;7.30;;
41426;SDS011;27171;51.812;19.514;2022-12-07T21:45:32;9.23;;;7.00;;
41426;SDS011;27171;51.812;19.514;2022-12-07T21:48:33;10.52;;;6.68;;
41426;SDS011;27171;51.812;19.514;2022-12-07T21:51:35;14.40;;;9.30;;
41426;SDS011;27171;51.812;19.514;2022-12-07T21:54:36;11.68;;;8.45;;
41426;SDS011;27171;51.812;19.514;2022-12-07T22:00:38;15.02;;;10.50;;
41426;SDS011;27171;51.812;19.514;2022-12-07T22:03:40;20.25;;;9.93;;
41426;SDS011;27171;51.812;19.514;2022-12-07T22:06:41;10.75;;;7.80;;
41426;SDS011;27171;51.812;19.514;2022-12-07T22:09:43;13.20;;;9.00;;
41426;SDS011;27171;51.812;19.514;2022-12-07T22:15:45;7.60;;;3.45;;
41426;SDS011;27171;51.812;19.514;2022-12-07T22:21:47;5.55;;;2.65;;
41426;SDS011;27171;51.812;19.514;2022-12-07T22:24:48;4.40;;;2.15;;
41426;SDS011;27171;51.812;19.514;2022-12-07T22:27:49;5.15;;;3.05;;
41426;SDS011;27171;51.812;19.514;2022-12-07T22:33:51;4.90;;;2.72;;
41426;SDS011;27171;51.812;19.514;2022-12-07T22:36:53;6.15;;;3.40;;
41426;SDS011;27171;51.812;19.514;2022-12-07T22:42:55;5.22;;;3.03;;
41426;SDS011;27171;51.812;19.514;2022-12-07T22:45:58;5.55;;;3.40;;
41426;SDS011;27171;51.812;19.514;2022-12-07T22:49:00;5.15;;;2.97;;
41426;SDS011;27171;51.812;19.514;2022-12-07T22:52:01;6.13;;;2.80;;
41426;SDS011;27171;51.812;19.514;2022-12-07T22:55:02;5.28;;;2.38;;
41426;SDS011;27171;51.812;19.514;2022-12-07T22:58:03;5.15;;;2.65;;
41426;SDS011;27171;51.812;19.514;2022-12-07T23:01:08;5.55;;;2.47;;
41426;SDS011;27171;51.812;19.514;2022-12-07T23:04:10;6.03;;;1.98;;
41426;SDS011;27171;51.812;19.514;2022-12-07T23:07:11;5.53;;;2.40;;
41426;SDS011;27171;51.812;19.514;2022-12-07T23:10:12;6.28;;;2.50;;
41426;SDS011;27171;51.812;19.514;2022-12-07T23:13:15;3.53;;;1.73;;
41426;SDS011;27171;51.812;19.514;2022-12-07T23:16:17;5.97;;;2.60;;
41426;SDS011;27171;51.812;19.514;2022-12-07T23:19:18;4.57;;;1.70;;
41426;SDS011;27171;51.812;19.514;2022-12-07T23:22:19;7.85;;;2.33;;
41426;SDS011;27171;51.812;19.514;2022-12-07T23:31:23;6.20;;;2.95;;
41426;SDS011;27171;51.812;19.514;2022-12-07T23:34:24;5.85;;;3.17;;